createdAt,value
2023-01-08T00:01:15.707Z,1.26
2023-01-08T00:03:42.695Z,1.43
2023-01-08T00:06:12.616Z,1.31
2023-01-08T00:08:39.513Z,1.36
2023-01-08T00:11:06.092Z,1.26
2023-01-08T00:13:32.865Z,1.23
2023-01-08T00:16:03.716Z,1.07
2023-01-08T00:18:30.287Z,1.20
2023-01-08T00:20:56.772Z,1.17
2023-01-08T00:23:23.449Z,1.15
2023-01-08T00:25:50.179Z,0.97
2023-01-08T00:28:17.056Z,0.94
2023-01-08T00:30:45.997Z,1.03
2023-01-08T00:33:12.569Z,1.02
2023-01-08T00:35:39.563Z,1.05
2023-01-08T00:38:06.558Z,1.03
2023-01-08T00:40:36.824Z,0.98
2023-01-08T00:43:04.012Z,0.95
2023-01-08T00:45:30.726Z,0.95
2023-01-08T00:47:57.362Z,1.07
2023-01-08T00:50:23.876Z,0.99
2023-01-08T00:52:50.386Z,0.77
2023-01-08T00:55:17.278Z,0.73
2023-01-08T00:57:43.774Z,0.69
2023-01-08T01:00:13.632Z,0.51
2023-01-08T01:02:40.847Z,0.52
2023-01-08T01:05:08.935Z,0.64
2023-01-08T01:07:35.641Z,0.84
2023-01-08T01:10:02.118Z,0.59
2023-01-08T01:12:28.833Z,0.72
2023-01-08T01:14:55.279Z,0.79
2023-01-08T01:17:21.811Z,0.75
2023-01-08T01:19:48.271Z,0.84
2023-01-08T01:22:14.753Z,0.77
2023-01-08T01:24:41.184Z,0.75
2023-01-08T01:27:07.778Z,0.54
2023-01-08T01:29:34.279Z,0.51
2023-01-08T01:32:00.735Z,0.53
2023-01-08T01:34:29.468Z,0.50
2023-01-08T01:36:55.893Z,0.56
2023-01-08T01:39:24.733Z,0.75
2023-01-08T01:41:53.143Z,0.81
2023-01-08T01:44:43.071Z,0.89
2023-01-08T01:47:38.325Z,0.67
2023-01-08T01:50:30.858Z,0.73
2023-01-08T01:53:05.712Z,0.66
2023-01-08T01:55:33.497Z,0.51
2023-01-08T01:58:06.122Z,0.46
2023-01-08T02:00:34.474Z,0.56
2023-01-08T02:03:01.621Z,0.54
2023-01-08T02:05:38.845Z,0.55
2023-01-08T02:08:11.644Z,0.49
2023-01-08T02:10:41.105Z,0.52
2023-01-08T02:13:17.713Z,0.46
2023-01-08T02:15:59.278Z,0.57
2023-01-08T02:18:36.034Z,0.54
2023-01-08T02:21:11.095Z,0.45
2023-01-08T02:23:58.124Z,0.44
2023-01-08T02:26:25.020Z,0.56
2023-01-08T02:29:03.657Z,0.50
2023-01-08T02:31:32.083Z,0.56
2023-01-08T02:33:58.805Z,0.40
2023-01-08T02:36:31.318Z,0.32
2023-01-08T02:39:01.627Z,0.38
2023-01-08T02:41:44.516Z,0.51
2023-01-08T02:44:17.417Z,0.37
2023-01-08T02:46:44.812Z,0.25
2023-01-08T02:49:13.931Z,0.39
2023-01-08T02:51:49.274Z,0.49
2023-01-08T02:54:20.335Z,0.61
2023-01-08T02:56:53.659Z,0.61
2023-01-08T02:59:22.784Z,0.73
2023-01-08T03:01:49.967Z,0.64
2023-01-08T03:04:20.422Z,0.66
2023-01-08T03:06:47.396Z,0.57
2023-01-08T03:09:15.859Z,0.67
2023-01-08T03:11:55.004Z,0.78
2023-01-08T03:14:40.835Z,0.48
2023-01-08T03:17:18.115Z,0.35
2023-01-08T03:19:50.328Z,0.38
2023-01-08T03:22:18.225Z,0.40
2023-01-08T03:24:50.785Z,0.64
2023-01-08T03:27:21.798Z,0.35
2023-01-08T03:29:52.033Z,0.51
2023-01-08T03:32:24.123Z,0.52
2023-01-08T03:34:54.292Z,0.45
2023-01-08T03:37:27.683Z,0.18
2023-01-08T03:40:18.306Z,0.22
2023-01-08T03:42:44.856Z,0.12
2023-01-08T03:45:11.837Z,0.30
2023-01-08T03:47:40.012Z,0.32
2023-01-08T03:50:10.155Z,0.19
2023-01-08T03:52:36.731Z,0.37
2023-01-08T03:55:04.079Z,0.29
2023-01-08T03:57:30.552Z,0.33
2023-01-08T03:59:57.141Z,0.47
2023-01-08T04:02:23.735Z,0.36
2023-01-08T04:04:50.242Z,0.50
2023-01-08T04:07:16.722Z,0.35
2023-01-08T04:09:43.408Z,0.39
2023-01-08T04:12:09.839Z,0.33
2023-01-08T04:14:36.313Z,0.48
2023-01-08T04:17:02.782Z,0.64
2023-01-08T04:19:29.246Z,0.52
2023-01-08T04:21:58.224Z,0.40
2023-01-08T04:24:24.704Z,0.25
2023-01-08T04:26:51.180Z,0.29
2023-01-08T04:29:17.638Z,0.54
2023-01-08T04:31:44.123Z,0.56
2023-01-08T04:34:10.593Z,0.32
2023-01-08T04:36:39.842Z,0.26
2023-01-08T04:39:07.694Z,0.18
2023-01-08T04:41:34.182Z,0.21
2023-01-08T04:44:00.630Z,0.22
2023-01-08T04:46:27.233Z,0.29
2023-01-08T04:48:53.764Z,0.29
2023-01-08T04:51:23.214Z,0.24
2023-01-08T04:53:49.718Z,0.16
2023-01-08T04:56:16.197Z,0.22
2023-01-08T04:58:42.660Z,0.13
2023-01-08T05:01:12.251Z,0.19
2023-01-08T05:03:41.207Z,0.17
2023-01-08T05:06:07.800Z,0.22
2023-01-08T05:08:34.358Z,0.11
2023-01-08T05:11:01.618Z,0.06
2023-01-08T05:13:29.027Z,0.06
2023-01-08T05:15:59.486Z,0.06
2023-01-08T05:18:26.658Z,0.10
2023-01-08T05:20:53.117Z,0.15
2023-01-08T05:23:19.596Z,0.22
2023-01-08T05:25:48.456Z,0.04
2023-01-08T05:28:14.974Z,0.01
2023-01-08T05:30:41.518Z,0.08
2023-01-08T05:33:08.071Z,-0.01
2023-01-08T05:35:34.510Z,-0.02
2023-01-08T05:38:00.980Z,0.08
2023-01-08T05:40:27.478Z,0.11
2023-01-08T05:42:53.975Z,0.17
2023-01-08T05:45:20.602Z,0.20
2023-01-08T05:47:47.159Z,0.31
2023-01-08T05:50:13.698Z,0.17
2023-01-08T05:52:40.193Z,0.34
2023-01-08T05:55:09.404Z,0.37
2023-01-08T05:57:35.986Z,0.19
2023-01-08T06:00:03.268Z,0.02
2023-01-08T06:02:29.694Z,0.13
2023-01-08T06:04:56.164Z,0.08
2023-01-08T06:07:22.603Z,0.19
2023-01-08T06:09:49.058Z,0.25
2023-01-08T06:12:15.622Z,0.14
2023-01-08T06:14:42.139Z,0.08
2023-01-08T06:17:08.587Z,-0.07
2023-01-08T06:19:35.038Z,0.03
2023-01-08T06:22:01.562Z,-0.07
2023-01-08T06:24:28.133Z,0.07
2023-01-08T06:26:54.633Z,0.02
2023-01-08T06:29:21.109Z,0.02
2023-01-08T06:31:47.530Z,0.12
2023-01-08T06:34:14.204Z,-0.08
2023-01-08T06:36:40.721Z,-0.04
2023-01-08T06:39:08.008Z,0.09
2023-01-08T06:41:34.780Z,0.09
2023-01-08T06:44:03.638Z,-0.05
2023-01-08T06:46:30.404Z,-0.09
2023-01-08T06:48:56.878Z,0.14
2023-01-08T06:51:23.380Z,0.16
2023-01-08T06:53:49.944Z,0.04
2023-01-08T06:56:16.458Z,0.14
2023-01-08T06:58:42.958Z,0.06
2023-01-08T07:01:13.747Z,0.14
2023-01-08T07:03:40.319Z,0.03
2023-01-08T07:06:07.232Z,0.20
2023-01-08T07:08:33.811Z,0.16
2023-01-08T07:11:03.872Z,0.26
2023-01-08T07:13:30.427Z,0.13
2023-01-08T07:15:56.901Z,0.20
2023-01-08T07:18:23.374Z,0.29
2023-01-08T07:20:52.569Z,0.14
2023-01-08T07:23:21.887Z,0.09
2023-01-08T07:25:48.393Z,0.21
2023-01-08T07:28:14.905Z,0.29
2023-01-08T07:30:41.431Z,0.28
2023-01-08T07:33:07.963Z,0.19
2023-01-08T07:35:35.622Z,0.22
2023-01-08T07:38:02.184Z,0.18
2023-01-08T07:40:28.662Z,0.26
2023-01-08T07:43:03.424Z,0.25
2023-01-08T07:45:31.047Z,0.36
2023-01-08T07:47:58.637Z,0.28
2023-01-08T07:50:26.144Z,0.48
2023-01-08T07:52:57.144Z,0.46
2023-01-08T07:55:23.657Z,0.52
2023-01-08T07:57:52.506Z,0.49
2023-01-08T08:00:19.320Z,0.51
2023-01-08T08:02:46.232Z,0.35
2023-01-08T08:05:15.191Z,0.48
2023-01-08T08:07:41.663Z,0.46
2023-01-08T08:10:08.442Z,0.57
2023-01-08T08:12:34.990Z,0.56
2023-01-08T08:15:01.534Z,0.44
2023-01-08T08:17:28.090Z,0.49
2023-01-08T08:19:54.568Z,0.56
2023-01-08T08:22:21.050Z,0.64
2023-01-08T08:24:47.531Z,0.75
2023-01-08T08:27:13.950Z,0.75
2023-01-08T08:29:42.694Z,0.65
2023-01-08T08:32:09.129Z,0.75
2023-01-08T08:34:35.619Z,0.89
2023-01-08T08:37:02.085Z,0.73
2023-01-08T08:39:28.580Z,0.76
2023-01-08T08:41:55.107Z,1.02
2023-01-08T08:44:21.545Z,0.75
2023-01-08T08:46:48.103Z,0.73
2023-01-08T08:49:14.614Z,1.09
2023-01-08T08:51:41.066Z,1.19
2023-01-08T08:54:07.480Z,1.02
2023-01-08T08:56:33.940Z,0.72
2023-01-08T08:59:00.472Z,0.95
2023-01-08T09:01:29.761Z,0.85
2023-01-08T09:03:56.292Z,0.96
2023-01-08T09:06:27.589Z,1.10
2023-01-08T09:08:55.114Z,1.30
2023-01-08T09:11:21.645Z,1.28
2023-01-08T09:13:48.189Z,1.31
2023-01-08T09:16:14.917Z,1.39
2023-01-08T09:18:42.018Z,1.47
2023-01-08T09:21:08.903Z,1.46
2023-01-08T09:23:36.035Z,1.36
2023-01-08T09:26:05.943Z,1.35
2023-01-08T09:28:33.121Z,1.27
2023-01-08T09:31:03.814Z,1.19
2023-01-08T09:33:30.670Z,1.19
2023-01-08T09:35:57.179Z,1.14
2023-01-08T09:38:23.777Z,1.28
2023-01-08T09:40:56.215Z,1.16
2023-01-08T09:43:24.709Z,1.37
2023-01-08T09:45:55.708Z,1.44
2023-01-08T09:48:28.247Z,1.40
2023-01-08T09:50:55.182Z,1.37
2023-01-08T09:53:21.683Z,1.58
2023-01-08T09:56:11.243Z,1.87
2023-01-08T09:58:50.480Z,1.50
2023-01-08T10:01:23.840Z,1.57
2023-01-08T10:04:11.875Z,1.51
2023-01-08T10:06:40.455Z,1.68
2023-01-08T10:09:12.523Z,1.68
2023-01-08T10:11:43.102Z,1.77
2023-01-08T10:14:28.352Z,1.76
2023-01-08T10:17:14.358Z,1.82
2023-01-08T10:19:40.843Z,1.84
2023-01-08T10:22:18.482Z,2.31
2023-01-08T10:24:45.361Z,2.28
2023-01-08T10:27:23.415Z,2.52
2023-01-08T10:29:51.896Z,2.60
2023-01-08T10:32:30.276Z,2.67
2023-01-08T10:34:58.094Z,2.70
2023-01-08T10:37:37.167Z,2.88
2023-01-08T10:40:22.602Z,3.02
2023-01-08T10:42:51.017Z,2.92
2023-01-08T10:45:25.879Z,3.24
2023-01-08T10:47:57.256Z,3.19
2023-01-08T10:50:29.196Z,3.49
2023-01-08T10:53:24.753Z,3.50
2023-01-08T10:56:02.282Z,3.56
2023-01-08T10:58:30.305Z,3.83
2023-01-08T11:01:13.330Z,3.64
2023-01-08T11:03:40.834Z,3.72
2023-01-08T11:06:15.785Z,3.95
2023-01-08T11:08:51.598Z,4.04
2023-01-08T11:11:18.574Z,4.07
2023-01-08T11:14:06.679Z,4.14
2023-01-08T11:16:36.618Z,4.53
2023-01-08T11:19:04.308Z,4.43
2023-01-08T11:21:36.978Z,4.66
2023-01-08T11:24:15.228Z,4.78
2023-01-08T11:26:48.386Z,4.69
2023-01-08T11:29:17.872Z,4.79
2023-01-08T11:31:54.212Z,4.78
2023-01-08T11:34:47.356Z,4.97
2023-01-08T11:37:27.075Z,4.87
2023-01-08T11:39:56.860Z,5.07
2023-01-08T11:42:31.709Z,4.98
2023-01-08T11:45:13.391Z,5.07
2023-01-08T11:48:06.212Z,5.18
2023-01-08T11:50:44.027Z,5.10
2023-01-08T11:53:17.517Z,4.98
2023-01-08T11:55:56.741Z,4.78
2023-01-08T11:58:29.713Z,4.68
2023-01-08T12:01:05.346Z,4.75
2023-01-08T12:03:44.851Z,4.78
2023-01-08T12:06:16.904Z,4.64
2023-01-08T12:09:10.426Z,4.94
2023-01-08T12:11:47.293Z,4.97
2023-01-08T12:14:29.080Z,4.71
2023-01-08T12:17:33.313Z,5.00
2023-01-08T12:20:12.023Z,5.04
2023-01-08T12:23:03.610Z,4.78
2023-01-08T12:26:05.778Z,4.73
2023-01-08T12:28:41.176Z,4.67
2023-01-08T12:32:01.572Z,4.71
2023-01-08T12:34:55.726Z,4.74
2023-01-08T12:37:39.580Z,4.60
2023-01-08T12:40:23.209Z,4.44
2023-01-08T12:43:01.128Z,4.51
2023-01-08T12:45:32.533Z,4.59
2023-01-08T12:48:08.946Z,4.64
2023-01-08T12:51:06.961Z,4.78
2023-01-08T12:54:31.615Z,4.54
2023-01-08T12:57:22.330Z,4.53
2023-01-08T12:59:53.907Z,4.63
2023-01-08T13:02:23.336Z,4.76
2023-01-08T13:04:50.681Z,4.73
2023-01-08T13:07:21.237Z,4.67
2023-01-08T13:10:01.127Z,4.97
2023-01-08T13:12:36.447Z,4.97
2023-01-08T13:15:04.490Z,5.19
2023-01-08T13:17:31.122Z,5.27
2023-01-08T13:20:03.221Z,5.11
2023-01-08T13:22:36.075Z,5.17
2023-01-08T13:25:17.859Z,5.04
2023-01-08T13:27:46.455Z,5.05
2023-01-08T13:30:34.768Z,5.04
2023-01-08T13:33:02.640Z,4.99
2023-01-08T13:35:35.012Z,5.07
2023-01-08T13:38:21.383Z,4.93
2023-01-08T13:40:50.739Z,4.98
2023-01-08T13:43:21.868Z,4.97
2023-01-08T13:46:00.455Z,4.93
2023-01-08T13:48:30.859Z,4.98
2023-01-08T13:50:57.431Z,4.94
2023-01-08T13:53:24.674Z,4.85
2023-01-08T13:56:08.120Z,4.77
2023-01-08T13:58:54.589Z,4.56
2023-01-08T14:01:22.582Z,4.66
2023-01-08T14:03:49.634Z,4.65
2023-01-08T14:06:21.178Z,4.62
2023-01-08T14:08:58.705Z,4.71
2023-01-08T14:11:30.119Z,4.64
2023-01-08T14:13:57.662Z,4.55
2023-01-08T14:16:24.805Z,4.50
2023-01-08T14:18:54.584Z,4.47
2023-01-08T14:21:23.057Z,4.43
2023-01-08T14:23:54.430Z,4.40
2023-01-08T14:26:35.516Z,4.32
2023-01-08T14:29:15.153Z,4.41
2023-01-08T14:31:55.687Z,4.29
2023-01-08T14:34:26.006Z,4.31
2023-01-08T14:36:56.046Z,4.33
2023-01-08T14:39:32.973Z,4.13
2023-01-08T14:42:26.259Z,4.24
2023-01-08T14:45:04.637Z,4.20
2023-01-08T14:47:38.120Z,4.17
2023-01-08T14:50:06.126Z,4.26
2023-01-08T14:52:34.854Z,4.29
2023-01-08T14:55:03.578Z,4.38
2023-01-08T14:57:31.423Z,4.34
2023-01-08T15:00:00.985Z,4.23
2023-01-08T15:02:36.816Z,4.23
2023-01-08T15:05:24.056Z,4.17
2023-01-08T15:08:22.885Z,4.15
2023-01-08T15:11:01.540Z,4.26
2023-01-08T15:13:38.063Z,4.15
2023-01-08T15:16:11.456Z,4.15
2023-01-08T15:18:49.074Z,4.25
2023-01-08T15:21:21.288Z,4.26
2023-01-08T15:23:54.897Z,4.23
2023-01-08T15:26:22.706Z,4.21
2023-01-08T15:28:49.133Z,4.22
2023-01-08T15:31:25.067Z,4.27
2023-01-08T15:33:51.636Z,4.26
2023-01-08T15:36:18.126Z,4.18
2023-01-08T15:38:44.569Z,4.18
2023-01-08T15:41:11.071Z,4.21
2023-01-08T15:43:37.517Z,4.12
2023-01-08T15:46:05.184Z,4.06
2023-01-08T15:48:31.682Z,4.15
2023-01-08T15:50:58.221Z,4.09
2023-01-08T15:53:24.742Z,4.13
2023-01-08T15:55:51.730Z,4.22
2023-01-08T15:58:18.854Z,4.05
2023-01-08T16:00:46.406Z,4.09
2023-01-08T16:03:14.754Z,4.04
2023-01-08T16:05:41.401Z,4.06
2023-01-08T16:08:07.982Z,4.05
2023-01-08T16:10:34.844Z,4.14
2023-01-08T16:13:04.292Z,4.16
2023-01-08T16:15:31.151Z,4.11
2023-01-08T16:17:59.418Z,4.13
2023-01-08T16:20:26.823Z,4.15
2023-01-08T16:22:55.015Z,4.03
2023-01-08T16:25:21.792Z,4.03
2023-01-08T16:27:50.796Z,4.00
2023-01-08T16:30:17.875Z,4.02
2023-01-08T16:32:46.743Z,4.07
2023-01-08T16:35:13.520Z,3.94
2023-01-08T16:37:40.200Z,4.07
2023-01-08T16:40:07.540Z,4.03
2023-01-08T16:42:34.404Z,4.11
2023-01-08T16:45:01.112Z,4.10
2023-01-08T16:47:27.890Z,4.07
2023-01-08T16:49:54.545Z,4.19
2023-01-08T16:52:21.272Z,4.10
2023-01-08T16:54:50.929Z,4.17
2023-01-08T16:57:17.599Z,4.22
2023-01-08T16:59:46.429Z,4.28
2023-01-08T17:02:13.129Z,4.35
2023-01-08T17:04:39.815Z,4.35
2023-01-08T17:07:11.352Z,4.23
2023-01-08T17:09:38.231Z,4.21
2023-01-08T17:12:05.075Z,4.25
2023-01-08T17:14:31.731Z,4.40
2023-01-08T17:16:58.424Z,4.21
2023-01-08T17:19:25.039Z,4.38
2023-01-08T17:21:51.700Z,4.30
2023-01-08T17:24:18.358Z,4.27
2023-01-08T17:26:45.081Z,4.33
2023-01-08T17:29:11.955Z,4.27
2023-01-08T17:31:41.747Z,4.28
2023-01-08T17:34:12.372Z,4.26
2023-01-08T17:36:39.162Z,4.45
2023-01-08T17:39:08.799Z,4.42
2023-01-08T17:41:54.522Z,4.26
2023-01-08T17:44:26.352Z,4.30
2023-01-08T17:46:53.049Z,4.39
2023-01-08T17:49:20.254Z,4.31
2023-01-08T17:51:49.440Z,4.40
2023-01-08T17:54:17.168Z,4.43
2023-01-08T17:56:43.917Z,4.46
2023-01-08T17:59:14.698Z,4.40
2023-01-08T18:01:45.280Z,4.35
2023-01-08T18:04:13.351Z,4.31
2023-01-08T18:06:40.387Z,4.37
2023-01-08T18:09:07.107Z,4.29
2023-01-08T18:11:33.874Z,4.32
2023-01-08T18:14:02.234Z,4.36
2023-01-08T18:16:30.949Z,4.32
2023-01-08T18:18:58.515Z,4.29
2023-01-08T18:21:26.409Z,4.35
2023-01-08T18:23:53.412Z,4.24
2023-01-08T18:26:20.857Z,4.30
2023-01-08T18:28:48.267Z,4.33
2023-01-08T18:31:15.904Z,4.27
2023-01-08T18:33:42.699Z,4.43
2023-01-08T18:36:12.400Z,4.48
2023-01-08T18:38:41.680Z,4.41
2023-01-08T18:41:11.354Z,4.32
2023-01-08T18:43:38.357Z,4.32
2023-01-08T18:46:07.401Z,4.29
2023-01-08T18:48:35.494Z,4.23
2023-01-08T18:51:05.504Z,4.27
2023-01-08T18:53:33.286Z,4.31
2023-01-08T18:56:01.546Z,4.37
2023-01-08T18:58:29.317Z,4.39
2023-01-08T19:00:56.091Z,4.32
2023-01-08T19:03:25.293Z,4.22
2023-01-08T19:05:52.551Z,4.23
2023-01-08T19:08:19.423Z,4.28
2023-01-08T19:10:46.133Z,4.24
2023-01-08T19:13:12.950Z,4.18
2023-01-08T19:15:39.612Z,4.17
2023-01-08T19:18:08.891Z,4.13
2023-01-08T19:20:35.673Z,4.17
2023-01-08T19:23:02.336Z,4.07
2023-01-08T19:25:29.050Z,4.03
2023-01-08T19:27:58.226Z,4.13
2023-01-08T19:30:25.214Z,3.99
2023-01-08T19:32:51.980Z,4.03
2023-01-08T19:35:20.813Z,3.90
2023-01-08T19:37:47.595Z,3.98
2023-01-08T19:40:14.370Z,3.82
2023-01-08T19:42:59.597Z,3.86
2023-01-08T19:45:26.580Z,3.88
2023-01-08T19:47:54.888Z,3.89
2023-01-08T19:50:23.280Z,3.89
2023-01-08T19:52:51.469Z,3.87
2023-01-08T19:55:22.225Z,3.81
2023-01-08T19:57:50.022Z,3.89
2023-01-08T20:00:17.710Z,3.87
2023-01-08T20:02:46.903Z,3.85
2023-01-08T20:05:16.354Z,3.84
2023-01-08T20:07:42.974Z,3.81
2023-01-08T20:10:13.103Z,3.79
2023-01-08T20:12:40.168Z,3.93
2023-01-08T20:15:07.538Z,3.97
2023-01-08T20:17:36.743Z,4.01
2023-01-08T20:20:03.843Z,3.88
2023-01-08T20:22:31.213Z,3.74
2023-01-08T20:24:58.675Z,3.89
2023-01-08T20:27:28.097Z,3.82
2023-01-08T20:29:55.992Z,3.93
2023-01-08T20:32:24.839Z,3.81
2023-01-08T20:34:54.028Z,3.83
2023-01-08T20:37:20.774Z,3.89
2023-01-08T20:39:47.639Z,3.78
2023-01-08T20:42:17.655Z,3.84
2023-01-08T20:44:54.178Z,3.81
2023-01-08T20:47:20.810Z,3.73
2023-01-08T20:49:47.524Z,3.74
2023-01-08T20:52:15.607Z,3.78
2023-01-08T20:54:42.214Z,3.76
2023-01-08T20:57:08.821Z,3.76
2023-01-08T20:59:35.960Z,3.83
2023-01-08T21:02:02.735Z,3.76
2023-01-08T21:04:29.579Z,3.68
2023-01-08T21:06:56.421Z,3.65
2023-01-08T21:09:23.190Z,3.73
2023-01-08T21:11:50.771Z,3.64
2023-01-08T21:14:19.770Z,3.74
2023-01-08T21:16:47.254Z,3.61
2023-01-08T21:19:15.351Z,3.66
2023-01-08T21:21:42.161Z,3.67
2023-01-08T21:24:13.150Z,3.62
2023-01-08T21:26:40.986Z,3.62
2023-01-08T21:29:10.549Z,3.70
2023-01-08T21:31:38.393Z,3.64
2023-01-08T21:34:06.239Z,3.68
2023-01-08T21:36:33.272Z,3.53
2023-01-08T21:39:01.276Z,3.56
2023-01-08T21:41:48.188Z,3.52
2023-01-08T21:44:38.923Z,3.55
2023-01-08T21:47:08.910Z,3.56
2023-01-08T21:49:36.278Z,3.49
2023-01-08T21:52:22.077Z,3.55
2023-01-08T21:54:51.117Z,3.51
2023-01-08T21:57:17.823Z,3.53
2023-01-08T21:59:46.675Z,3.57
2023-01-08T22:02:18.969Z,3.55
2023-01-08T22:04:45.951Z,3.61
2023-01-08T22:07:12.641Z,3.57
2023-01-08T22:09:39.403Z,3.57
2023-01-08T22:12:07.000Z,3.70
2023-01-08T22:14:34.617Z,3.68
2023-01-08T22:17:04.073Z,3.72
2023-01-08T22:19:30.869Z,3.83
2023-01-08T22:21:57.481Z,4.02
2023-01-08T22:24:24.152Z,4.07
2023-01-08T22:26:50.773Z,3.89
2023-01-08T22:29:17.592Z,3.78
2023-01-08T22:31:44.522Z,3.72
2023-01-08T22:34:16.886Z,3.60
2023-01-08T22:36:44.473Z,3.70
2023-01-08T22:39:11.689Z,3.70
2023-01-08T22:41:38.348Z,3.61
2023-01-08T22:44:07.709Z,3.66
2023-01-08T22:46:34.328Z,3.69
2023-01-08T22:49:00.964Z,3.65
2023-01-08T22:51:27.831Z,3.69
2023-01-08T22:53:55.876Z,3.75
2023-01-08T22:56:22.581Z,3.92
2023-01-08T22:58:49.272Z,3.71
2023-01-08T23:01:19.017Z,3.74
2023-01-08T23:03:49.078Z,3.82
2023-01-08T23:06:17.433Z,3.76
2023-01-08T23:08:47.401Z,3.68
2023-01-08T23:11:17.190Z,3.75
2023-01-08T23:13:43.959Z,3.84
2023-01-08T23:16:14.179Z,4.03
2023-01-08T23:18:41.607Z,4.05
2023-01-08T23:21:11.317Z,3.85
2023-01-08T23:23:38.559Z,3.78
2023-01-08T23:26:06.373Z,3.75
2023-01-08T23:28:33.156Z,3.81
2023-01-08T23:30:59.981Z,3.86
2023-01-08T23:33:29.166Z,3.84
2023-01-08T23:35:55.795Z,3.81
2023-01-08T23:38:22.420Z,3.79
2023-01-08T23:40:49.004Z,3.87
2023-01-08T23:43:15.642Z,3.82
2023-01-08T23:45:42.315Z,3.83
2023-01-08T23:48:09.525Z,3.84
2023-01-08T23:50:36.325Z,3.91
2023-01-08T23:53:03.620Z,3.93
2023-01-08T23:55:30.261Z,4.10
2023-01-08T23:58:00.099Z,3.95
